sensor_id;sensor_type;location;lat;lon;timestamp;P1;durP1;ratioP1;P2;durP2;ratioP2
24008;SDS011;12217;50.792;4.372;2023-04-24T00:00:46;26.85;;;17.92;;
24008;SDS011;12217;50.792;4.372;2023-04-24T00:03:12;25.38;;;16.75;;
24008;SDS011;12217;50.792;4.372;2023-04-24T00:05:38;29.15;;;17.60;;
24008;SDS011;12217;50.792;4.372;2023-04-24T00:08:05;33.05;;;18.63;;
24008;SDS011;12217;50.792;4.372;2023-04-24T00:10:31;25.85;;;18.38;;
24008;SDS011;12217;50.792;4.372;2023-04-24T00:12:56;31.38;;;18.90;;
24008;SDS011;12217;50.792;4.372;2023-04-24T00:15:22;27.42;;;17.70;;
24008;SDS011;12217;50.792;4.372;2023-04-24T00:17:48;31.67;;;19.02;;
24008;SDS011;12217;50.792;4.372;2023-04-24T00:20:14;27.42;;;17.88;;
24008;SDS011;12217;50.792;4.372;2023-04-24T00:22:39;29.52;;;19.58;;
24008;SDS011;12217;50.792;4.372;2023-04-24T00:25:05;27.95;;;19.13;;
24008;SDS011;12217;50.792;4.372;2023-04-24T00:27:31;27.70;;;18.30;;
24008;SDS011;12217;50.792;4.372;2023-04-24T00:29:57;35.17;;;19.95;;
24008;SDS011;12217;50.792;4.372;2023-04-24T00:32:23;27.77;;;18.70;;
24008;SDS011;12217;50.792;4.372;2023-04-24T00:34:48;30.92;;;18.85;;
24008;SDS011;12217;50.792;4.372;2023-04-24T00:37:14;30.20;;;18.88;;
24008;SDS011;12217;50.792;4.372;2023-04-24T00:39:41;31.52;;;18.85;;
24008;SDS011;12217;50.792;4.372;2023-04-24T00:42:07;26.88;;;18.83;;
24008;SDS011;12217;50.792;4.372;2023-04-24T00:44:33;29.73;;;19.20;;
24008;SDS011;12217;50.792;4.372;2023-04-24T00:46:59;30.75;;;17.77;;
24008;SDS011;12217;50.792;4.372;2023-04-24T00:49:26;29.45;;;19.88;;
24008;SDS011;12217;50.792;4.372;2023-04-24T00:51:52;28.45;;;19.90;;
24008;SDS011;12217;50.792;4.372;2023-04-24T00:54:18;27.35;;;20.27;;
24008;SDS011;12217;50.792;4.372;2023-04-24T00:56:44;37.83;;;20.58;;
24008;SDS011;12217;50.792;4.372;2023-04-24T00:59:15;35.15;;;21.42;;
24008;SDS011;12217;50.792;4.372;2023-04-24T01:01:42;30.77;;;19.75;;
24008;SDS011;12217;50.792;4.372;2023-04-24T01:04:09;28.90;;;19.75;;
24008;SDS011;12217;50.792;4.372;2023-04-24T01:06:38;30.58;;;19.38;;
24008;SDS011;12217;50.792;4.372;2023-04-24T01:09:04;28.35;;;18.65;;
24008;SDS011;12217;50.792;4.372;2023-04-24T01:11:33;28.52;;;20.05;;
24008;SDS011;12217;50.792;4.372;2023-04-24T01:13:58;29.38;;;21.05;;
24008;SDS011;12217;50.792;4.372;2023-04-24T01:16:25;31.77;;;21.27;;
24008;SDS011;12217;50.792;4.372;2023-04-24T01:18:51;35.45;;;22.23;;
24008;SDS011;12217;50.792;4.372;2023-04-24T01:21:16;30.10;;;21.42;;
24008;SDS011;12217;50.792;4.372;2023-04-24T01:23:45;33.95;;;21.85;;
24008;SDS011;12217;50.792;4.372;2023-04-24T01:26:12;32.55;;;22.13;;
24008;SDS011;12217;50.792;4.372;2023-04-24T01:28:38;31.55;;;20.50;;
24008;SDS011;12217;50.792;4.372;2023-04-24T01:31:04;31.00;;;20.02;;
24008;SDS011;12217;50.792;4.372;2023-04-24T01:33:30;29.25;;;19.98;;
24008;SDS011;12217;50.792;4.372;2023-04-24T01:35:56;26.20;;;19.33;;
24008;SDS011;12217;50.792;4.372;2023-04-24T01:38:22;30.00;;;19.63;;
24008;SDS011;12217;50.792;4.372;2023-04-24T01:40:49;31.05;;;20.65;;
24008;SDS011;12217;50.792;4.372;2023-04-24T01:43:15;33.80;;;21.50;;
24008;SDS011;12217;50.792;4.372;2023-04-24T01:45:41;28.83;;;21.33;;
24008;SDS011;12217;50.792;4.372;2023-04-24T01:48:06;28.65;;;21.05;;
24008;SDS011;12217;50.792;4.372;2023-04-24T01:50:32;29.13;;;21.85;;
24008;SDS011;12217;50.792;4.372;2023-04-24T01:52:58;35.90;;;22.88;;
24008;SDS011;12217;50.792;4.372;2023-04-24T01:55:23;34.95;;;23.75;;
24008;SDS011;12217;50.792;4.372;2023-04-24T01:57:50;39.45;;;25.27;;
24008;SDS011;12217;50.792;4.372;2023-04-24T02:00:18;41.22;;;25.88;;
24008;SDS011;12217;50.792;4.372;2023-04-24T02:02:44;33.85;;;25.60;;
24008;SDS011;12217;50.792;4.372;2023-04-24T02:05:10;41.47;;;26.05;;
24008;SDS011;12217;50.792;4.372;2023-04-24T02:07:36;38.72;;;26.35;;
24008;SDS011;12217;50.792;4.372;2023-04-24T02:10:02;35.15;;;25.98;;
24008;SDS011;12217;50.792;4.372;2023-04-24T02:12:29;41.40;;;28.05;;
24008;SDS011;12217;50.792;4.372;2023-04-24T02:14:54;38.08;;;26.88;;
24008;SDS011;12217;50.792;4.372;2023-04-24T02:17:20;39.45;;;26.63;;
24008;SDS011;12217;50.792;4.372;2023-04-24T02:19:46;37.10;;;26.40;;
24008;SDS011;12217;50.792;4.372;2023-04-24T02:22:11;38.72;;;25.95;;
24008;SDS011;12217;50.792;4.372;2023-04-24T02:24:37;38.67;;;26.75;;
24008;SDS011;12217;50.792;4.372;2023-04-24T02:27:03;35.53;;;25.80;;
24008;SDS011;12217;50.792;4.372;2023-04-24T02:29:29;40.72;;;25.42;;
24008;SDS011;12217;50.792;4.372;2023-04-24T02:31:56;31.42;;;23.83;;
24008;SDS011;12217;50.792;4.372;2023-04-24T02:34:21;32.53;;;22.35;;
24008;SDS011;12217;50.792;4.372;2023-04-24T02:36:48;34.13;;;23.98;;
24008;SDS011;12217;50.792;4.372;2023-04-24T02:39:14;31.25;;;22.92;;
24008;SDS011;12217;50.792;4.372;2023-04-24T02:41:41;33.33;;;21.98;;
24008;SDS011;12217;50.792;4.372;2023-04-24T02:44:07;34.35;;;22.73;;
24008;SDS011;12217;50.792;4.372;2023-04-24T02:46:33;33.65;;;24.20;;
24008;SDS011;12217;50.792;4.372;2023-04-24T02:48:58;32.22;;;23.13;;
24008;SDS011;12217;50.792;4.372;2023-04-24T02:51:24;30.13;;;21.90;;
24008;SDS011;12217;50.792;4.372;2023-04-24T02:53:50;33.10;;;22.88;;
24008;SDS011;12217;50.792;4.372;2023-04-24T02:56:15;32.17;;;21.98;;
24008;SDS011;12217;50.792;4.372;2023-04-24T02:58:41;31.50;;;21.95;;
24008;SDS011;12217;50.792;4.372;2023-04-24T03:01:07;29.20;;;20.05;;
24008;SDS011;12217;50.792;4.372;2023-04-24T03:03:35;31.80;;;20.13;;
24008;SDS011;12217;50.792;4.372;2023-04-24T03:06:01;34.22;;;18.90;;
24008;SDS011;12217;50.792;4.372;2023-04-24T03:08:26;25.23;;;17.63;;
24008;SDS011;12217;50.792;4.372;2023-04-24T03:10:52;25.75;;;17.85;;
24008;SDS011;12217;50.792;4.372;2023-04-24T03:13:18;27.20;;;18.63;;
24008;SDS011;12217;50.792;4.372;2023-04-24T03:15:43;25.17;;;17.88;;
24008;SDS011;12217;50.792;4.372;2023-04-24T03:18:10;22.48;;;17.75;;
24008;SDS011;12217;50.792;4.372;2023-04-24T03:20:35;25.65;;;17.70;;
24008;SDS011;12217;50.792;4.372;2023-04-24T03:23:02;25.98;;;18.60;;
24008;SDS011;12217;50.792;4.372;2023-04-24T03:25:28;25.50;;;18.33;;
24008;SDS011;12217;50.792;4.372;2023-04-24T03:27:53;24.67;;;17.48;;
24008;SDS011;12217;50.792;4.372;2023-04-24T03:30:19;25.42;;;18.83;;
24008;SDS011;12217;50.792;4.372;2023-04-24T03:32:45;23.75;;;18.42;;
24008;SDS011;12217;50.792;4.372;2023-04-24T03:35:11;24.33;;;19.40;;
24008;SDS011;12217;50.792;4.372;2023-04-24T03:37:37;25.10;;;19.80;;
24008;SDS011;12217;50.792;4.372;2023-04-24T03:40:02;25.38;;;19.77;;
24008;SDS011;12217;50.792;4.372;2023-04-24T03:42:28;24.95;;;19.90;;
24008;SDS011;12217;50.792;4.372;2023-04-24T03:44:54;27.48;;;18.92;;
24008;SDS011;12217;50.792;4.372;2023-04-24T03:47:20;22.45;;;15.73;;
24008;SDS011;12217;50.792;4.372;2023-04-24T03:49:45;22.88;;;16.90;;
24008;SDS011;12217;50.792;4.372;2023-04-24T03:52:11;27.65;;;17.95;;
24008;SDS011;12217;50.792;4.372;2023-04-24T03:54:36;23.40;;;17.02;;
24008;SDS011;12217;50.792;4.372;2023-04-24T03:57:02;21.88;;;15.32;;
24008;SDS011;12217;50.792;4.372;2023-04-24T03:59:29;18.63;;;14.65;;
24008;SDS011;12217;50.792;4.372;2023-04-24T04:01:55;17.63;;;13.30;;
24008;SDS011;12217;50.792;4.372;2023-04-24T04:04:21;17.98;;;13.63;;
24008;SDS011;12217;50.792;4.372;2023-04-24T04:06:46;14.82;;;11.45;;
24008;SDS011;12217;50.792;4.372;2023-04-24T04:09:12;15.23;;;12.07;;
24008;SDS011;12217;50.792;4.372;2023-04-24T04:11:38;14.85;;;11.77;;
24008;SDS011;12217;50.792;4.372;2023-04-24T04:14:04;14.98;;;11.13;;
24008;SDS011;12217;50.792;4.372;2023-04-24T04:16:30;15.32;;;10.88;;
24008;SDS011;12217;50.792;4.372;2023-04-24T04:18:56;13.93;;;10.82;;
24008;SDS011;12217;50.792;4.372;2023-04-24T04:21:21;12.43;;;9.98;;
24008;SDS011;12217;50.792;4.372;2023-04-24T04:23:47;12.20;;;9.68;;
24008;SDS011;12217;50.792;4.372;2023-04-24T04:26:13;11.63;;;10.35;;
24008;SDS011;12217;50.792;4.372;2023-04-24T04:28:39;13.18;;;10.00;;
24008;SDS011;12217;50.792;4.372;2023-04-24T04:31:05;16.00;;;10.90;;
24008;SDS011;12217;50.792;4.372;2023-04-24T04:33:32;11.25;;;9.98;;
24008;SDS011;12217;50.792;4.372;2023-04-24T04:35:58;14.25;;;10.15;;
24008;SDS011;12217;50.792;4.372;2023-04-24T04:38:25;16.05;;;10.80;;
24008;SDS011;12217;50.792;4.372;2023-04-24T04:40:55;17.48;;;11.60;;
24008;SDS011;12217;50.792;4.372;2023-04-24T04:43:23;14.73;;;11.20;;
24008;SDS011;12217;50.792;4.372;2023-04-24T04:45:49;16.17;;;11.95;;
24008;SDS011;12217;50.792;4.372;2023-04-24T04:48:16;15.95;;;10.50;;
24008;SDS011;12217;50.792;4.372;2023-04-24T04:50:42;13.82;;;10.73;;
24008;SDS011;12217;50.792;4.372;2023-04-24T04:53:08;14.98;;;11.98;;
24008;SDS011;12217;50.792;4.372;2023-04-24T04:55:33;17.33;;;12.07;;
24008;SDS011;12217;50.792;4.372;2023-04-24T04:57:59;16.00;;;11.77;;
24008;SDS011;12217;50.792;4.372;2023-04-24T05:00:25;16.73;;;12.32;;
24008;SDS011;12217;50.792;4.372;2023-04-24T05:02:52;16.70;;;13.07;;
24008;SDS011;12217;50.792;4.372;2023-04-24T05:05:18;19.63;;;13.27;;
24008;SDS011;12217;50.792;4.372;2023-04-24T05:07:44;22.92;;;14.20;;
24008;SDS011;12217;50.792;4.372;2023-04-24T05:10:09;22.15;;;14.93;;
24008;SDS011;12217;50.792;4.372;2023-04-24T05:12:36;18.70;;;14.68;;
24008;SDS011;12217;50.792;4.372;2023-04-24T05:15:02;19.73;;;15.02;;
24008;SDS011;12217;50.792;4.372;2023-04-24T05:17:28;22.17;;;15.07;;
24008;SDS011;12217;50.792;4.372;2023-04-24T05:19:54;23.63;;;16.30;;
24008;SDS011;12217;50.792;4.372;2023-04-24T05:22:20;23.65;;;16.27;;
24008;SDS011;12217;50.792;4.372;2023-04-24T05:24:46;27.98;;;16.85;;
24008;SDS011;12217;50.792;4.372;2023-04-24T05:27:12;22.35;;;15.95;;
24008;SDS011;12217;50.792;4.372;2023-04-24T05:29:38;18.63;;;16.02;;
24008;SDS011;12217;50.792;4.372;2023-04-24T05:32:03;27.48;;;17.20;;
24008;SDS011;12217;50.792;4.372;2023-04-24T05:34:29;24.98;;;17.27;;
24008;SDS011;12217;50.792;4.372;2023-04-24T05:36:55;24.27;;;17.98;;
24008;SDS011;12217;50.792;4.372;2023-04-24T05:39:21;24.42;;;17.20;;
24008;SDS011;12217;50.792;4.372;2023-04-24T05:41:46;23.88;;;17.15;;
24008;SDS011;12217;50.792;4.372;2023-04-24T05:44:12;26.63;;;16.75;;
24008;SDS011;12217;50.792;4.372;2023-04-24T05:46:38;23.08;;;17.20;;
24008;SDS011;12217;50.792;4.372;2023-04-24T05:49:03;22.83;;;16.75;;
24008;SDS011;12217;50.792;4.372;2023-04-24T05:51:29;22.83;;;15.45;;
24008;SDS011;12217;50.792;4.372;2023-04-24T05:53:56;28.27;;;15.93;;
24008;SDS011;12217;50.792;4.372;2023-04-24T05:56:22;24.95;;;16.48;;
24008;SDS011;12217;50.792;4.372;2023-04-24T05:58:48;26.02;;;17.83;;
24008;SDS011;12217;50.792;4.372;2023-04-24T06:01:14;23.75;;;16.40;;
24008;SDS011;12217;50.792;4.372;2023-04-24T06:03:40;22.05;;;17.25;;
24008;SDS011;12217;50.792;4.372;2023-04-24T06:06:06;26.45;;;18.42;;
24008;SDS011;12217;50.792;4.372;2023-04-24T06:08:32;21.70;;;16.55;;
24008;SDS011;12217;50.792;4.372;2023-04-24T06:10:58;27.17;;;17.92;;
24008;SDS011;12217;50.792;4.372;2023-04-24T06:13:24;24.13;;;17.38;;
24008;SDS011;12217;50.792;4.372;2023-04-24T06:15:50;29.08;;;17.92;;
24008;SDS011;12217;50.792;4.372;2023-04-24T06:18:16;26.65;;;16.38;;
24008;SDS011;12217;50.792;4.372;2023-04-24T06:20:42;27.95;;;17.38;;
24008;SDS011;12217;50.792;4.372;2023-04-24T06:23:08;25.92;;;17.48;;
24008;SDS011;12217;50.792;4.372;2023-04-24T06:25:33;26.13;;;18.40;;
24008;SDS011;12217;50.792;4.372;2023-04-24T06:27:59;27.63;;;19.67;;
24008;SDS011;12217;50.792;4.372;2023-04-24T06:30:25;26.30;;;18.20;;
24008;SDS011;12217;50.792;4.372;2023-04-24T06:32:52;28.35;;;18.52;;
24008;SDS011;12217;50.792;4.372;2023-04-24T06:35:18;27.27;;;18.95;;
24008;SDS011;12217;50.792;4.372;2023-04-24T06:37:43;28.80;;;19.40;;
24008;SDS011;12217;50.792;4.372;2023-04-24T06:40:09;29.50;;;19.98;;
24008;SDS011;12217;50.792;4.372;2023-04-24T06:42:35;32.42;;;20.40;;
24008;SDS011;12217;50.792;4.372;2023-04-24T06:45:01;30.02;;;20.63;;
24008;SDS011;12217;50.792;4.372;2023-04-24T06:47:28;32.80;;;21.05;;
24008;SDS011;12217;50.792;4.372;2023-04-24T06:49:54;37.60;;;21.48;;
24008;SDS011;12217;50.792;4.372;2023-04-24T06:52:20;33.40;;;23.52;;
24008;SDS011;12217;50.792;4.372;2023-04-24T06:54:45;33.83;;;22.98;;
24008;SDS011;12217;50.792;4.372;2023-04-24T06:57:11;31.50;;;22.10;;
24008;SDS011;12217;50.792;4.372;2023-04-24T06:59:37;35.70;;;22.45;;
24008;SDS011;12217;50.792;4.372;2023-04-24T07:02:03;40.17;;;22.17;;
24008;SDS011;12217;50.792;4.372;2023-04-24T07:04:29;31.38;;;22.85;;
24008;SDS011;12217;50.792;4.372;2023-04-24T07:06:55;37.85;;;22.98;;
24008;SDS011;12217;50.792;4.372;2023-04-24T07:09:23;36.70;;;22.77;;
24008;SDS011;12217;50.792;4.372;2023-04-24T07:11:53;33.20;;;21.95;;
24008;SDS011;12217;50.792;4.372;2023-04-24T07:14:20;40.13;;;22.17;;
24008;SDS011;12217;50.792;4.372;2023-04-24T07:16:46;34.10;;;21.83;;
24008;SDS011;12217;50.792;4.372;2023-04-24T07:19:12;34.13;;;22.25;;
24008;SDS011;12217;50.792;4.372;2023-04-24T07:21:38;36.17;;;22.48;;
24008;SDS011;12217;50.792;4.372;2023-04-24T07:24:04;34.50;;;21.83;;
24008;SDS011;12217;50.792;4.372;2023-04-24T07:26:30;33.72;;;20.95;;
24008;SDS011;12217;50.792;4.372;2023-04-24T07:28:56;36.22;;;21.42;;
24008;SDS011;12217;50.792;4.372;2023-04-24T07:31:22;34.33;;;21.58;;
24008;SDS011;12217;50.792;4.372;2023-04-24T07:33:48;32.63;;;21.25;;
24008;SDS011;12217;50.792;4.372;2023-04-24T07:36:14;31.38;;;21.60;;
24008;SDS011;12217;50.792;4.372;2023-04-24T07:38:43;37.35;;;21.52;;
24008;SDS011;12217;50.792;4.372;2023-04-24T07:41:13;33.80;;;20.45;;
24008;SDS011;12217;50.792;4.372;2023-04-24T07:43:39;29.35;;;21.55;;
24008;SDS011;12217;50.792;4.372;2023-04-24T07:46:05;37.08;;;21.60;;
24008;SDS011;12217;50.792;4.372;2023-04-24T07:48:31;32.67;;;21.50;;
24008;SDS011;12217;50.792;4.372;2023-04-24T07:50:57;31.38;;;21.67;;
24008;SDS011;12217;50.792;4.372;2023-04-24T07:53:23;34.05;;;21.25;;
24008;SDS011;12217;50.792;4.372;2023-04-24T07:55:48;33.47;;;20.88;;
24008;SDS011;12217;50.792;4.372;2023-04-24T07:58:14;29.20;;;19.67;;
24008;SDS011;12217;50.792;4.372;2023-04-24T08:00:40;32.72;;;19.42;;
24008;SDS011;12217;50.792;4.372;2023-04-24T08:03:05;27.73;;;18.63;;
24008;SDS011;12217;50.792;4.372;2023-04-24T08:05:31;30.08;;;17.85;;
24008;SDS011;12217;50.792;4.372;2023-04-24T08:07:58;26.38;;;16.98;;
24008;SDS011;12217;50.792;4.372;2023-04-24T08:10:24;24.33;;;14.10;;
24008;SDS011;12217;50.792;4.372;2023-04-24T08:12:51;23.63;;;14.80;;
24008;SDS011;12217;50.792;4.372;2023-04-24T08:15:17;23.90;;;13.32;;
24008;SDS011;12217;50.792;4.372;2023-04-24T08:17:43;21.23;;;13.02;;
24008;SDS011;12217;50.792;4.372;2023-04-24T08:20:09;18.52;;;12.68;;
24008;SDS011;12217;50.792;4.372;2023-04-24T08:22:39;25.77;;;13.88;;
24008;SDS011;12217;50.792;4.372;2023-04-24T08:25:05;23.30;;;13.27;;
24008;SDS011;12217;50.792;4.372;2023-04-24T08:27:31;21.95;;;13.50;;
24008;SDS011;12217;50.792;4.372;2023-04-24T08:29:57;17.95;;;12.48;;
24008;SDS011;12217;50.792;4.372;2023-04-24T08:32:35;20.65;;;12.05;;
24008;SDS011;12217;50.792;4.372;2023-04-24T08:35:13;25.45;;;12.73;;
24008;SDS011;12217;50.792;4.372;2023-04-24T08:37:40;21.23;;;12.60;;
24008;SDS011;12217;50.792;4.372;2023-04-24T08:40:17;23.08;;;11.25;;
24008;SDS011;12217;50.792;4.372;2023-04-24T08:42:46;23.23;;;11.10;;
24008;SDS011;12217;50.792;4.372;2023-04-24T08:45:12;21.98;;;11.65;;
24008;SDS011;12217;50.792;4.372;2023-04-24T08:47:38;22.17;;;12.15;;
24008;SDS011;12217;50.792;4.372;2023-04-24T08:50:06;19.13;;;11.02;;
24008;SDS011;12217;50.792;4.372;2023-04-24T08:52:33;21.83;;;11.25;;
24008;SDS011;12217;50.792;4.372;2023-04-24T08:55:02;22.35;;;11.20;;
24008;SDS011;12217;50.792;4.372;2023-04-24T08:57:29;14.90;;;9.48;;
24008;SDS011;12217;50.792;4.372;2023-04-24T08:59:56;17.05;;;9.75;;
24008;SDS011;12217;50.792;4.372;2023-04-24T09:02:22;19.20;;;9.10;;
24008;SDS011;12217;50.792;4.372;2023-04-24T09:04:49;15.63;;;8.70;;
24008;SDS011;12217;50.792;4.372;2023-04-24T09:07:16;16.17;;;8.60;;
24008;SDS011;12217;50.792;4.372;2023-04-24T09:09:43;16.08;;;8.77;;
24008;SDS011;12217;50.792;4.372;2023-04-24T09:12:09;16.73;;;8.07;;
24008;SDS011;12217;50.792;4.372;2023-04-24T09:14:35;14.55;;;7.85;;
24008;SDS011;12217;50.792;4.372;2023-04-24T09:17:04;16.80;;;8.80;;
24008;SDS011;12217;50.792;4.372;2023-04-24T09:19:31;10.68;;;7.10;;
24008;SDS011;12217;50.792;4.372;2023-04-24T09:21:56;14.70;;;7.20;;
24008;SDS011;12217;50.792;4.372;2023-04-24T09:24:22;15.80;;;6.63;;
24008;SDS011;12217;50.792;4.372;2023-04-24T09:26:48;11.73;;;6.93;;
24008;SDS011;12217;50.792;4.372;2023-04-24T09:29:22;15.85;;;7.15;;
24008;SDS011;12217;50.792;4.372;2023-04-24T09:31:47;12.70;;;6.78;;
24008;SDS011;12217;50.792;4.372;2023-04-24T09:34:13;15.85;;;7.75;;
24008;SDS011;12217;50.792;4.372;2023-04-24T09:36:39;14.18;;;8.20;;
24008;SDS011;12217;50.792;4.372;2023-04-24T09:39:08;18.23;;;8.82;;
24008;SDS011;12217;50.792;4.372;2023-04-24T09:42:00;13.02;;;8.00;;
24008;SDS011;12217;50.792;4.372;2023-04-24T09:44:26;14.07;;;7.55;;
24008;SDS011;12217;50.792;4.372;2023-04-24T09:46:53;13.77;;;7.57;;
24008;SDS011;12217;50.792;4.372;2023-04-24T09:49:22;16.60;;;9.38;;
24008;SDS011;12217;50.792;4.372;2023-04-24T09:51:49;15.43;;;8.18;;
24008;SDS011;12217;50.792;4.372;2023-04-24T09:54:16;14.32;;;7.93;;
24008;SDS011;12217;50.792;4.372;2023-04-24T09:56:43;14.65;;;8.00;;
24008;SDS011;12217;50.792;4.372;2023-04-24T09:59:10;11.45;;;6.80;;
24008;SDS011;12217;50.792;4.372;2023-04-24T10:01:37;11.75;;;7.15;;
24008;SDS011;12217;50.792;4.372;2023-04-24T10:04:03;11.32;;;6.35;;
24008;SDS011;12217;50.792;4.372;2023-04-24T10:06:29;11.95;;;6.55;;
24008;SDS011;12217;50.792;4.372;2023-04-24T10:08:59;18.00;;;6.68;;
24008;SDS011;12217;50.792;4.372;2023-04-24T10:11:26;10.07;;;6.20;;
24008;SDS011;12217;50.792;4.372;2023-04-24T10:13:53;13.77;;;6.10;;
24008;SDS011;12217;50.792;4.372;2023-04-24T10:16:19;10.93;;;6.50;;
24008;SDS011;12217;50.792;4.372;2023-04-24T10:18:47;14.38;;;6.15;;
24008;SDS011;12217;50.792;4.372;2023-04-24T10:21:17;13.32;;;6.90;;
24008;SDS011;12217;50.792;4.372;2023-04-24T10:23:42;13.63;;;6.53;;
24008;SDS011;12217;50.792;4.372;2023-04-24T10:26:14;11.98;;;6.65;;
24008;SDS011;12217;50.792;4.372;2023-04-24T10:28:44;12.60;;;6.90;;
24008;SDS011;12217;50.792;4.372;2023-04-24T10:31:11;7.78;;;6.05;;
24008;SDS011;12217;50.792;4.372;2023-04-24T10:33:38;15.45;;;6.60;;
24008;SDS011;12217;50.792;4.372;2023-04-24T10:36:06;13.70;;;7.03;;
24008;SDS011;12217;50.792;4.372;2023-04-24T10:38:34;10.80;;;6.65;;
24008;SDS011;12217;50.792;4.372;2023-04-24T10:43:34;11.10;;;7.25;;
24008;SDS011;12217;50.792;4.372;2023-04-24T10:46:04;11.95;;;7.68;;
24008;SDS011;12217;50.792;4.372;2023-04-24T10:48:31;12.60;;;7.38;;
24008;SDS011;12217;50.792;4.372;2023-04-24T10:50:57;14.63;;;7.50;;
24008;SDS011;12217;50.792;4.372;2023-04-24T10:53:24;12.93;;;7.78;;
24008;SDS011;12217;50.792;4.372;2023-04-24T10:58:39;11.98;;;7.63;;
24008;SDS011;12217;50.792;4.372;2023-04-24T11:01:23;11.95;;;7.65;;
24008;SDS011;12217;50.792;4.372;2023-04-24T11:03:54;13.82;;;8.00;;
24008;SDS011;12217;50.792;4.372;2023-04-24T11:06:31;13.00;;;8.90;;
24008;SDS011;12217;50.792;4.372;2023-04-24T11:09:10;13.90;;;9.38;;
24008;SDS011;12217;50.792;4.372;2023-04-24T11:11:44;12.93;;;8.57;;
24008;SDS011;12217;50.792;4.372;2023-04-24T11:14:13;13.63;;;8.48;;
24008;SDS011;12217;50.792;4.372;2023-04-24T11:19:22;15.32;;;9.27;;
24008;SDS011;12217;50.792;4.372;2023-04-24T11:21:54;12.75;;;8.63;;
24008;SDS011;12217;50.792;4.372;2023-04-24T11:27:06;12.27;;;8.40;;
24008;SDS011;12217;50.792;4.372;2023-04-24T11:29:40;17.43;;;8.47;;
24008;SDS011;12217;50.792;4.372;2023-04-24T11:34:54;17.25;;;9.63;;
24008;SDS011;12217;50.792;4.372;2023-04-24T11:37:38;13.82;;;9.27;;
24008;SDS011;12217;50.792;4.372;2023-04-24T11:40:05;13.23;;;9.20;;
24008;SDS011;12217;50.792;4.372;2023-04-24T11:42:42;13.70;;;8.73;;
24008;SDS011;12217;50.792;4.372;2023-04-24T11:45:13;14.65;;;9.25;;
24008;SDS011;12217;50.792;4.372;2023-04-24T11:47:41;12.25;;;8.52;;
24008;SDS011;12217;50.792;4.372;2023-04-24T11:50:08;11.88;;;9.20;;
24008;SDS011;12217;50.792;4.372;2023-04-24T11:52:37;14.10;;;9.35;;
24008;SDS011;12217;50.792;4.372;2023-04-24T11:57:45;14.77;;;9.40;;
24008;SDS011;12217;50.792;4.372;2023-04-24T12:00:16;14.48;;;9.75;;
24008;SDS011;12217;50.792;4.372;2023-04-24T12:02:43;18.08;;;10.30;;
24008;SDS011;12217;50.792;4.372;2023-04-24T12:05:18;12.80;;;9.20;;
24008;SDS011;12217;50.792;4.372;2023-04-24T12:07:49;13.90;;;8.63;;
24008;SDS011;12217;50.792;4.372;2023-04-24T12:10:19;13.50;;;9.40;;
24008;SDS011;12217;50.792;4.372;2023-04-24T12:12:49;14.10;;;9.73;;
24008;SDS011;12217;50.792;4.372;2023-04-24T12:15:16;11.70;;;8.50;;
24008;SDS011;12217;50.792;4.372;2023-04-24T12:17:43;13.13;;;9.10;;
24008;SDS011;12217;50.792;4.372;2023-04-24T12:20:09;9.68;;;7.90;;
24008;SDS011;12217;50.792;4.372;2023-04-24T12:25:31;11.63;;;8.43;;
24008;SDS011;12217;50.792;4.372;2023-04-24T12:30:30;18.52;;;10.15;;
24008;SDS011;12217;50.792;4.372;2023-04-24T12:33:00;11.77;;;8.93;;
24008;SDS011;12217;50.792;4.372;2023-04-24T12:35:29;11.98;;;8.85;;
24008;SDS011;12217;50.792;4.372;2023-04-24T12:38:05;12.45;;;9.10;;
24008;SDS011;12217;50.792;4.372;2023-04-24T12:40:35;10.95;;;8.73;;
24008;SDS011;12217;50.792;4.372;2023-04-24T12:43:01;9.60;;;8.68;;
24008;SDS011;12217;50.792;4.372;2023-04-24T12:45:26;13.85;;;9.50;;
24008;SDS011;12217;50.792;4.372;2023-04-24T12:47:53;12.93;;;8.70;;
24008;SDS011;12217;50.792;4.372;2023-04-24T12:50:18;11.70;;;8.68;;
24008;SDS011;12217;50.792;4.372;2023-04-24T12:52:44;11.38;;;8.68;;
24008;SDS011;12217;50.792;4.372;2023-04-24T12:55:10;11.85;;;7.93;;
24008;SDS011;12217;50.792;4.372;2023-04-24T12:57:37;10.82;;;8.27;;
24008;SDS011;12217;50.792;4.372;2023-04-24T13:00:05;10.18;;;8.15;;
24008;SDS011;12217;50.792;4.372;2023-04-24T13:02:32;9.07;;;7.50;;
24008;SDS011;12217;50.792;4.372;2023-04-24T13:04:58;8.93;;;7.32;;
24008;SDS011;12217;50.792;4.372;2023-04-24T13:07:25;10.30;;;7.47;;
24008;SDS011;12217;50.792;4.372;2023-04-24T13:09:52;8.15;;;6.95;;
24008;SDS011;12217;50.792;4.372;2023-04-24T13:12:19;12.57;;;7.13;;
24008;SDS011;12217;50.792;4.372;2023-04-24T13:14:45;8.93;;;6.85;;
24008;SDS011;12217;50.792;4.372;2023-04-24T13:17:11;10.15;;;6.93;;
24008;SDS011;12217;50.792;4.372;2023-04-24T13:19:41;9.70;;;6.30;;
24008;SDS011;12217;50.792;4.372;2023-04-24T13:22:11;8.35;;;6.32;;
24008;SDS011;12217;50.792;4.372;2023-04-24T13:24:38;6.68;;;5.90;;
24008;SDS011;12217;50.792;4.372;2023-04-24T13:27:06;7.90;;;5.70;;
24008;SDS011;12217;50.792;4.372;2023-04-24T13:29:32;11.60;;;6.03;;
24008;SDS011;12217;50.792;4.372;2023-04-24T13:31:57;10.23;;;6.20;;
24008;SDS011;12217;50.792;4.372;2023-04-24T13:34:23;7.40;;;5.63;;
24008;SDS011;12217;50.792;4.372;2023-04-24T13:36:55;13.38;;;6.35;;
24008;SDS011;12217;50.792;4.372;2023-04-24T13:39:22;9.05;;;5.85;;
24008;SDS011;12217;50.792;4.372;2023-04-24T13:41:48;10.35;;;6.00;;
24008;SDS011;12217;50.792;4.372;2023-04-24T13:44:14;7.97;;;5.60;;
24008;SDS011;12217;50.792;4.372;2023-04-24T13:46:41;8.45;;;5.15;;
24008;SDS011;12217;50.792;4.372;2023-04-24T13:49:08;5.82;;;4.72;;
24008;SDS011;12217;50.792;4.372;2023-04-24T13:51:34;8.73;;;5.10;;
24008;SDS011;12217;50.792;4.372;2023-04-24T13:54:00;5.50;;;4.90;;
24008;SDS011;12217;50.792;4.372;2023-04-24T13:56:26;10.68;;;4.95;;
24008;SDS011;12217;50.792;4.372;2023-04-24T13:58:51;6.43;;;4.57;;
24008;SDS011;12217;50.792;4.372;2023-04-24T14:01:19;8.70;;;4.72;;
24008;SDS011;12217;50.792;4.372;2023-04-24T14:03:45;8.60;;;4.00;;
24008;SDS011;12217;50.792;4.372;2023-04-24T14:06:11;6.65;;;4.13;;
24008;SDS011;12217;50.792;4.372;2023-04-24T14:08:37;10.48;;;4.05;;
24008;SDS011;12217;50.792;4.372;2023-04-24T14:11:02;7.88;;;4.28;;
24008;SDS011;12217;50.792;4.372;2023-04-24T14:13:28;6.85;;;4.10;;
24008;SDS011;12217;50.792;4.372;2023-04-24T14:15:54;9.85;;;4.50;;
24008;SDS011;12217;50.792;4.372;2023-04-24T14:18:20;8.77;;;4.30;;
24008;SDS011;12217;50.792;4.372;2023-04-24T14:20:45;7.13;;;4.57;;
24008;SDS011;12217;50.792;4.372;2023-04-24T14:23:11;6.65;;;3.80;;
24008;SDS011;12217;50.792;4.372;2023-04-24T14:25:37;5.72;;;3.28;;
24008;SDS011;12217;50.792;4.372;2023-04-24T14:28:02;5.65;;;3.72;;
24008;SDS011;12217;50.792;4.372;2023-04-24T14:30:28;5.13;;;3.22;;
24008;SDS011;12217;50.792;4.372;2023-04-24T14:32:54;7.18;;;3.85;;
24008;SDS011;12217;50.792;4.372;2023-04-24T14:35:20;5.55;;;3.47;;
24008;SDS011;12217;50.792;4.372;2023-04-24T14:37:45;6.00;;;3.72;;
24008;SDS011;12217;50.792;4.372;2023-04-24T14:40:13;12.10;;;3.38;;
24008;SDS011;12217;50.792;4.372;2023-04-24T14:42:39;4.22;;;2.95;;
24008;SDS011;12217;50.792;4.372;2023-04-24T14:45:05;4.38;;;2.70;;
24008;SDS011;12217;50.792;4.372;2023-04-24T14:47:32;4.68;;;3.03;;